Terminal Aerodrome Forecast
Issued by NWS Sioux Falls, SD

Home | Current Version | Previous Version | Text Only | Print | Product List | Glossary On
Versions: 1 2 3 4 5 6 7 8 9 10 11 12 13 14 15 16 17 18 19 20 21 22 23 24 25
000
FTUS43 KFSD 061120
TAFSUX
TAF
KSUX 061120Z 0612/0712 27007KT P6SM -SHRA SCT035 OVC100
     FM061400 31014G21KT P6SM -SHRA SCT020 OVC050
     FM061800 36017G25KT P6SM BKN040
     FM070200 35007KT P6SM SKC=

USA.gov is the U.S. government's official web portal to all federal, state and local government web resources and services.